sensor_id;sensor_type;location;lat;lon;timestamp;P1;durP1;ratioP1;P2;durP2;ratioP2
50733;SDS011;36701;51.798;19.474;2023-06-10T00:00:02;8.50;;;5.12;;
50733;SDS011;36701;51.798;19.474;2023-06-10T02:02:41;7.72;;;5.53;;
50733;SDS011;36701;51.798;19.474;2023-06-10T02:05:08;8.88;;;6.18;;
50733;SDS011;36701;51.798;19.474;2023-06-10T02:07:34;8.43;;;6.45;;
50733;SDS011;36701;51.798;19.474;2023-06-10T02:10:00;7.37;;;6.47;;
50733;SDS011;36701;51.798;19.474;2023-06-10T02:12:28;11.75;;;6.97;;
50733;SDS011;36701;51.798;19.474;2023-06-10T02:14:54;9.55;;;6.57;;
50733;SDS011;36701;51.798;19.474;2023-06-10T02:17:21;7.12;;;5.95;;
50733;SDS011;36701;51.798;19.474;2023-06-10T02:19:49;16.73;;;7.85;;
50733;SDS011;36701;51.798;19.474;2023-06-10T02:22:22;9.40;;;6.60;;
50733;SDS011;36701;51.798;19.474;2023-06-10T02:24:48;8.32;;;6.72;;
50733;SDS011;36701;51.798;19.474;2023-06-10T02:27:15;11.52;;;7.30;;
50733;SDS011;36701;51.798;19.474;2023-06-10T02:29:41;10.82;;;7.00;;
50733;SDS011;36701;51.798;19.474;2023-06-10T02:32:08;12.88;;;7.10;;
50733;SDS011;36701;51.798;19.474;2023-06-10T02:37:09;11.88;;;7.65;;
50733;SDS011;36701;51.798;19.474;2023-06-10T02:39:35;9.23;;;7.32;;
50733;SDS011;36701;51.798;19.474;2023-06-10T02:42:02;18.55;;;7.68;;
50733;SDS011;36701;51.798;19.474;2023-06-10T02:44:28;12.23;;;8.40;;
50733;SDS011;36701;51.798;19.474;2023-06-10T02:46:55;12.23;;;7.87;;
50733;SDS011;36701;51.798;19.474;2023-06-10T02:49:21;13.62;;;7.47;;
50733;SDS011;36701;51.798;19.474;2023-06-10T02:51:47;12.95;;;7.53;;
50733;SDS011;36701;51.798;19.474;2023-06-10T02:54:14;13.60;;;8.35;;
50733;SDS011;36701;51.798;19.474;2023-06-10T02:56:43;8.70;;;7.57;;
50733;SDS011;36701;51.798;19.474;2023-06-10T02:59:11;12.70;;;7.85;;
50733;SDS011;36701;51.798;19.474;2023-06-10T03:01:38;11.65;;;8.50;;
50733;SDS011;36701;51.798;19.474;2023-06-10T03:04:04;13.05;;;8.32;;
50733;SDS011;36701;51.798;19.474;2023-06-10T03:06:31;12.70;;;8.25;;
50733;SDS011;36701;51.798;19.474;2023-06-10T03:09:01;12.23;;;8.15;;
50733;SDS011;36701;51.798;19.474;2023-06-10T03:11:30;11.75;;;9.15;;
50733;SDS011;36701;51.798;19.474;2023-06-10T03:13:57;10.13;;;8.15;;
50733;SDS011;36701;51.798;19.474;2023-06-10T03:16:23;10.30;;;8.50;;
50733;SDS011;36701;51.798;19.474;2023-06-10T03:18:51;11.45;;;8.60;;
50733;SDS011;36701;51.798;19.474;2023-06-10T03:21:18;11.48;;;8.75;;
50733;SDS011;36701;51.798;19.474;2023-06-10T03:23:44;13.50;;;8.13;;
50733;SDS011;36701;51.798;19.474;2023-06-10T03:26:11;10.63;;;7.95;;
50733;SDS011;36701;51.798;19.474;2023-06-10T03:28:38;9.90;;;7.87;;
50733;SDS011;36701;51.798;19.474;2023-06-10T03:31:06;15.05;;;7.60;;
50733;SDS011;36701;51.798;19.474;2023-06-10T03:33:32;11.45;;;8.10;;
50733;SDS011;36701;51.798;19.474;2023-06-10T03:35:58;14.07;;;8.10;;
50733;SDS011;36701;51.798;19.474;2023-06-10T03:38:25;12.55;;;7.82;;
50733;SDS011;36701;51.798;19.474;2023-06-10T03:40:53;14.35;;;8.25;;
50733;SDS011;36701;51.798;19.474;2023-06-10T03:43:18;11.85;;;7.95;;
50733;SDS011;36701;51.798;19.474;2023-06-10T03:45:46;11.05;;;7.20;;
50733;SDS011;36701;51.798;19.474;2023-06-10T03:48:14;12.43;;;6.87;;
50733;SDS011;36701;51.798;19.474;2023-06-10T03:50:41;8.20;;;5.97;;
50733;SDS011;36701;51.798;19.474;2023-06-10T03:53:07;7.95;;;6.55;;
50733;SDS011;36701;51.798;19.474;2023-06-10T03:55:35;10.95;;;6.30;;
50733;SDS011;36701;51.798;19.474;2023-06-10T03:58:02;20.40;;;6.00;;
50733;SDS011;36701;51.798;19.474;2023-06-10T04:00:28;20.75;;;6.62;;
50733;SDS011;36701;51.798;19.474;2023-06-10T04:02:55;9.65;;;7.32;;
50733;SDS011;36701;51.798;19.474;2023-06-10T04:05:25;17.15;;;6.72;;
50733;SDS011;36701;51.798;19.474;2023-06-10T04:07:51;8.65;;;6.18;;
50733;SDS011;36701;51.798;19.474;2023-06-10T04:10:25;16.35;;;6.25;;
50733;SDS011;36701;51.798;19.474;2023-06-10T04:12:51;11.98;;;5.75;;
50733;SDS011;36701;51.798;19.474;2023-06-10T04:15:18;13.32;;;6.85;;
50733;SDS011;36701;51.798;19.474;2023-06-10T04:17:44;12.23;;;6.28;;
50733;SDS011;36701;51.798;19.474;2023-06-10T04:20:11;12.23;;;7.57;;
50733;SDS011;36701;51.798;19.474;2023-06-10T04:22:38;12.10;;;6.47;;
50733;SDS011;36701;51.798;19.474;2023-06-10T04:25:04;9.90;;;6.03;;
50733;SDS011;36701;51.798;19.474;2023-06-10T04:27:31;7.68;;;5.45;;
50733;SDS011;36701;51.798;19.474;2023-06-10T04:29:57;10.05;;;5.80;;
50733;SDS011;36701;51.798;19.474;2023-06-10T04:32:23;14.38;;;5.47;;
50733;SDS011;36701;51.798;19.474;2023-06-10T04:34:50;12.35;;;4.87;;
50733;SDS011;36701;51.798;19.474;2023-06-10T04:37:17;9.13;;;5.25;;
50733;SDS011;36701;51.798;19.474;2023-06-10T04:39:44;9.57;;;4.55;;
50733;SDS011;36701;51.798;19.474;2023-06-10T04:42:11;13.57;;;5.00;;
50733;SDS011;36701;51.798;19.474;2023-06-10T04:44:38;8.13;;;4.47;;
50733;SDS011;36701;51.798;19.474;2023-06-10T04:47:04;4.65;;;4.12;;
50733;SDS011;36701;51.798;19.474;2023-06-10T04:49:33;5.43;;;4.47;;
50733;SDS011;36701;51.798;19.474;2023-06-10T04:52:02;8.15;;;3.97;;
50733;SDS011;36701;51.798;19.474;2023-06-10T04:54:33;6.87;;;3.65;;
50733;SDS011;36701;51.798;19.474;2023-06-10T04:56:59;13.20;;;4.10;;
50733;SDS011;36701;51.798;19.474;2023-06-10T04:59:26;6.65;;;3.75;;
50733;SDS011;36701;51.798;19.474;2023-06-10T05:01:52;6.10;;;4.03;;
50733;SDS011;36701;51.798;19.474;2023-06-10T05:04:18;13.00;;;4.93;;
50733;SDS011;36701;51.798;19.474;2023-06-10T05:06:44;7.70;;;4.45;;
50733;SDS011;36701;51.798;19.474;2023-06-10T05:09:11;7.95;;;4.18;;
50733;SDS011;36701;51.798;19.474;2023-06-10T05:11:37;5.85;;;4.30;;
50733;SDS011;36701;51.798;19.474;2023-06-10T05:14:03;12.10;;;4.12;;
50733;SDS011;36701;51.798;19.474;2023-06-10T05:16:29;6.68;;;3.80;;
50733;SDS011;36701;51.798;19.474;2023-06-10T05:18:56;8.85;;;4.00;;
50733;SDS011;36701;51.798;19.474;2023-06-10T05:21:22;9.55;;;4.12;;
50733;SDS011;36701;51.798;19.474;2023-06-10T05:23:48;9.85;;;4.18;;
50733;SDS011;36701;51.798;19.474;2023-06-10T05:26:21;10.55;;;4.75;;
50733;SDS011;36701;51.798;19.474;2023-06-10T05:28:48;11.77;;;4.30;;
50733;SDS011;36701;51.798;19.474;2023-06-10T05:31:14;9.32;;;4.00;;
50733;SDS011;36701;51.798;19.474;2023-06-10T05:33:41;7.43;;;4.07;;
50733;SDS011;36701;51.798;19.474;2023-06-10T05:36:07;5.03;;;3.55;;
50733;SDS011;36701;51.798;19.474;2023-06-10T05:38:33;6.22;;;3.92;;
50733;SDS011;36701;51.798;19.474;2023-06-10T05:41:00;7.37;;;4.43;;
50733;SDS011;36701;51.798;19.474;2023-06-10T05:43:26;6.72;;;3.45;;
50733;SDS011;36701;51.798;19.474;2023-06-10T05:45:52;6.95;;;4.05;;
50733;SDS011;36701;51.798;19.474;2023-06-10T05:48:21;10.40;;;3.62;;
50733;SDS011;36701;51.798;19.474;2023-06-10T05:50:48;6.40;;;3.55;;
50733;SDS011;36701;51.798;19.474;2023-06-10T05:53:14;11.30;;;3.83;;
50733;SDS011;36701;51.798;19.474;2023-06-10T05:55:42;5.12;;;3.58;;
50733;SDS011;36701;51.798;19.474;2023-06-10T05:58:08;15.20;;;3.92;;
50733;SDS011;36701;51.798;19.474;2023-06-10T06:00:34;12.68;;;4.40;;
50733;SDS011;36701;51.798;19.474;2023-06-10T06:03:01;8.35;;;4.37;;
50733;SDS011;36701;51.798;19.474;2023-06-10T06:05:27;14.35;;;4.05;;
50733;SDS011;36701;51.798;19.474;2023-06-10T06:07:53;10.23;;;3.83;;
50733;SDS011;36701;51.798;19.474;2023-06-10T06:10:19;12.37;;;4.30;;
50733;SDS011;36701;51.798;19.474;2023-06-10T06:12:46;16.00;;;5.45;;
50733;SDS011;36701;51.798;19.474;2023-06-10T06:15:12;10.15;;;4.90;;
50733;SDS011;36701;51.798;19.474;2023-06-10T06:17:38;11.90;;;3.97;;
50733;SDS011;36701;51.798;19.474;2023-06-10T06:20:04;8.90;;;3.62;;
50733;SDS011;36701;51.798;19.474;2023-06-10T06:22:31;7.90;;;3.92;;
50733;SDS011;36701;51.798;19.474;2023-06-10T06:24:57;11.18;;;3.80;;
50733;SDS011;36701;51.798;19.474;2023-06-10T06:27:23;18.10;;;3.97;;
50733;SDS011;36701;51.798;19.474;2023-06-10T06:29:49;6.90;;;4.47;;
50733;SDS011;36701;51.798;19.474;2023-06-10T06:32:17;8.13;;;3.58;;
50733;SDS011;36701;51.798;19.474;2023-06-10T06:34:42;6.15;;;3.80;;
50733;SDS011;36701;51.798;19.474;2023-06-10T06:37:09;6.25;;;3.60;;
50733;SDS011;36701;51.798;19.474;2023-06-10T06:39:36;8.95;;;4.07;;
50733;SDS011;36701;51.798;19.474;2023-06-10T06:42:02;7.93;;;4.03;;
50733;SDS011;36701;51.798;19.474;2023-06-10T06:44:36;6.18;;;3.47;;
50733;SDS011;36701;51.798;19.474;2023-06-10T06:47:03;6.53;;;3.62;;
50733;SDS011;36701;51.798;19.474;2023-06-10T06:49:29;7.53;;;3.33;;
50733;SDS011;36701;51.798;19.474;2023-06-10T06:51:56;11.80;;;4.47;;
50733;SDS011;36701;51.798;19.474;2023-06-10T06:54:22;10.25;;;4.35;;
50733;SDS011;36701;51.798;19.474;2023-06-10T06:56:48;8.80;;;3.97;;
50733;SDS011;36701;51.798;19.474;2023-06-10T06:59:14;10.07;;;4.35;;
50733;SDS011;36701;51.798;19.474;2023-06-10T07:01:41;5.00;;;3.78;;
50733;SDS011;36701;51.798;19.474;2023-06-10T07:04:07;6.20;;;3.83;;
50733;SDS011;36701;51.798;19.474;2023-06-10T07:06:33;7.70;;;4.35;;
50733;SDS011;36701;51.798;19.474;2023-06-10T07:08:59;10.55;;;3.95;;
50733;SDS011;36701;51.798;19.474;2023-06-10T07:11:31;8.35;;;3.97;;
50733;SDS011;36701;51.798;19.474;2023-06-10T07:13:57;9.80;;;3.95;;
50733;SDS011;36701;51.798;19.474;2023-06-10T07:16:24;9.88;;;3.70;;
50733;SDS011;36701;51.798;19.474;2023-06-10T07:18:50;11.10;;;4.25;;
50733;SDS011;36701;51.798;19.474;2023-06-10T07:21:16;7.82;;;4.18;;
50733;SDS011;36701;51.798;19.474;2023-06-10T07:23:42;7.53;;;4.32;;
50733;SDS011;36701;51.798;19.474;2023-06-10T07:26:09;6.78;;;3.65;;
50733;SDS011;36701;51.798;19.474;2023-06-10T07:28:43;16.02;;;4.15;;
50733;SDS011;36701;51.798;19.474;2023-06-10T07:31:10;12.02;;;4.50;;
50733;SDS011;36701;51.798;19.474;2023-06-10T07:33:37;8.57;;;3.65;;
50733;SDS011;36701;51.798;19.474;2023-06-10T07:36:05;6.05;;;4.40;;
50733;SDS011;36701;51.798;19.474;2023-06-10T07:38:31;7.70;;;4.53;;
50733;SDS011;36701;51.798;19.474;2023-06-10T07:40:58;6.87;;;4.60;;
50733;SDS011;36701;51.798;19.474;2023-06-10T07:43:24;13.57;;;3.67;;
50733;SDS011;36701;51.798;19.474;2023-06-10T07:45:51;6.93;;;4.50;;
50733;SDS011;36701;51.798;19.474;2023-06-10T07:48:16;6.00;;;3.80;;
50733;SDS011;36701;51.798;19.474;2023-06-10T07:50:43;8.10;;;4.47;;
50733;SDS011;36701;51.798;19.474;2023-06-10T07:53:09;10.52;;;4.60;;
50733;SDS011;36701;51.798;19.474;2023-06-10T07:55:36;8.07;;;4.70;;
50733;SDS011;36701;51.798;19.474;2023-06-10T07:58:02;6.68;;;4.03;;
50733;SDS011;36701;51.798;19.474;2023-06-10T08:00:28;10.40;;;4.35;;
50733;SDS011;36701;51.798;19.474;2023-06-10T08:02:54;6.35;;;3.62;;
50733;SDS011;36701;51.798;19.474;2023-06-10T08:05:22;4.45;;;3.85;;
50733;SDS011;36701;51.798;19.474;2023-06-10T08:07:48;7.37;;;3.55;;
50733;SDS011;36701;51.798;19.474;2023-06-10T08:10:14;6.07;;;3.80;;
50733;SDS011;36701;51.798;19.474;2023-06-10T08:12:40;10.30;;;3.50;;
50733;SDS011;36701;51.798;19.474;2023-06-10T08:15:07;6.03;;;3.70;;
50733;SDS011;36701;51.798;19.474;2023-06-10T08:17:33;4.40;;;3.37;;
50733;SDS011;36701;51.798;19.474;2023-06-10T08:20:00;8.82;;;3.70;;
50733;SDS011;36701;51.798;19.474;2023-06-10T08:22:26;4.20;;;3.65;;
50733;SDS011;36701;51.798;19.474;2023-06-10T08:24:53;3.20;;;3.00;;
50733;SDS011;36701;51.798;19.474;2023-06-10T08:27:19;3.60;;;3.30;;
50733;SDS011;36701;51.798;19.474;2023-06-10T08:29:45;5.43;;;3.37;;
50733;SDS011;36701;51.798;19.474;2023-06-10T08:32:11;6.18;;;2.97;;
50733;SDS011;36701;51.798;19.474;2023-06-10T08:34:37;9.98;;;3.20;;
50733;SDS011;36701;51.798;19.474;2023-06-10T08:37:03;6.93;;;3.60;;
50733;SDS011;36701;51.798;19.474;2023-06-10T08:39:30;3.70;;;3.37;;
50733;SDS011;36701;51.798;19.474;2023-06-10T08:44:28;7.43;;;3.83;;
50733;SDS011;36701;51.798;19.474;2023-06-10T08:46:55;7.47;;;3.40;;
50733;SDS011;36701;51.798;19.474;2023-06-10T08:49:22;5.82;;;3.10;;
50733;SDS011;36701;51.798;19.474;2023-06-10T08:51:51;7.60;;;4.30;;
50733;SDS011;36701;51.798;19.474;2023-06-10T08:54:21;9.05;;;3.22;;
50733;SDS011;36701;51.798;19.474;2023-06-10T08:56:48;11.65;;;3.90;;
50733;SDS011;36701;51.798;19.474;2023-06-10T09:01:48;5.37;;;3.17;;
50733;SDS011;36701;51.798;19.474;2023-06-10T09:04:15;5.37;;;3.55;;
50733;SDS011;36701;51.798;19.474;2023-06-10T09:06:43;3.00;;;2.55;;
50733;SDS011;36701;51.798;19.474;2023-06-10T09:09:10;5.60;;;3.85;;
50733;SDS011;36701;51.798;19.474;2023-06-10T09:11:37;6.90;;;3.00;;
50733;SDS011;36701;51.798;19.474;2023-06-10T09:14:04;8.32;;;2.85;;
50733;SDS011;36701;51.798;19.474;2023-06-10T09:16:30;4.65;;;3.15;;
50733;SDS011;36701;51.798;19.474;2023-06-10T09:18:56;3.78;;;2.80;;
50733;SDS011;36701;51.798;19.474;2023-06-10T09:21:22;3.67;;;3.17;;
50733;SDS011;36701;51.798;19.474;2023-06-10T09:23:49;8.63;;;3.33;;
50733;SDS011;36701;51.798;19.474;2023-06-10T09:26:15;3.05;;;2.83;;
50733;SDS011;36701;51.798;19.474;2023-06-10T09:28:44;4.20;;;2.85;;
50733;SDS011;36701;51.798;19.474;2023-06-10T09:31:13;14.80;;;3.40;;
50733;SDS011;36701;51.798;19.474;2023-06-10T09:33:40;3.20;;;2.87;;
50733;SDS011;36701;51.798;19.474;2023-06-10T09:36:21;6.45;;;2.58;;
50733;SDS011;36701;51.798;19.474;2023-06-10T09:38:49;6.10;;;2.83;;
50733;SDS011;36701;51.798;19.474;2023-06-10T09:41:15;4.45;;;3.33;;
50733;SDS011;36701;51.798;19.474;2023-06-10T09:43:41;6.47;;;2.75;;
50733;SDS011;36701;51.798;19.474;2023-06-10T09:46:18;4.85;;;2.40;;
50733;SDS011;36701;51.798;19.474;2023-06-10T09:48:45;12.02;;;3.03;;
50733;SDS011;36701;51.798;19.474;2023-06-10T09:51:12;2.62;;;2.42;;
50733;SDS011;36701;51.798;19.474;2023-06-10T09:53:38;4.95;;;3.30;;
50733;SDS011;36701;51.798;19.474;2023-06-10T09:56:04;8.45;;;3.28;;
50733;SDS011;36701;51.798;19.474;2023-06-10T09:58:38;11.57;;;2.97;;
50733;SDS011;36701;51.798;19.474;2023-06-10T10:01:04;3.45;;;2.33;;
50733;SDS011;36701;51.798;19.474;2023-06-10T10:03:33;4.35;;;3.08;;
50733;SDS011;36701;51.798;19.474;2023-06-10T10:05:59;3.03;;;2.40;;
50733;SDS011;36701;51.798;19.474;2023-06-10T10:08:28;10.73;;;2.80;;
50733;SDS011;36701;51.798;19.474;2023-06-10T10:10:55;7.90;;;2.67;;
50733;SDS011;36701;51.798;19.474;2023-06-10T10:13:22;4.37;;;2.72;;
50733;SDS011;36701;51.798;19.474;2023-06-10T10:15:49;6.15;;;2.47;;
50733;SDS011;36701;51.798;19.474;2023-06-10T10:18:16;8.23;;;3.00;;
50733;SDS011;36701;51.798;19.474;2023-06-10T10:20:49;7.32;;;2.80;;
50733;SDS011;36701;51.798;19.474;2023-06-10T10:23:18;2.87;;;2.50;;
50733;SDS011;36701;51.798;19.474;2023-06-10T10:25:51;6.47;;;2.42;;
50733;SDS011;36701;51.798;19.474;2023-06-10T10:28:18;19.40;;;2.75;;
50733;SDS011;36701;51.798;19.474;2023-06-10T10:30:47;8.13;;;2.95;;
50733;SDS011;36701;51.798;19.474;2023-06-10T10:33:37;8.55;;;3.10;;
50733;SDS011;36701;51.798;19.474;2023-06-10T10:36:01;7.78;;;3.03;;
50733;SDS011;36701;51.798;19.474;2023-06-10T10:38:28;5.22;;;3.25;;
50733;SDS011;36701;51.798;19.474;2023-06-10T10:40:54;2.87;;;2.70;;
50733;SDS011;36701;51.798;19.474;2023-06-10T10:43:22;3.97;;;2.28;;
50733;SDS011;36701;51.798;19.474;2023-06-10T10:46:11;3.33;;;2.78;;
50733;SDS011;36701;51.798;19.474;2023-06-10T10:48:38;2.50;;;2.30;;
50733;SDS011;36701;51.798;19.474;2023-06-10T10:51:05;13.38;;;3.28;;
50733;SDS011;36701;51.798;19.474;2023-06-10T10:53:31;3.72;;;2.58;;
50733;SDS011;36701;51.798;19.474;2023-06-10T10:56:07;3.83;;;2.72;;
50733;SDS011;36701;51.798;19.474;2023-06-10T10:58:34;3.75;;;2.67;;
50733;SDS011;36701;51.798;19.474;2023-06-10T11:01:09;6.85;;;2.83;;
50733;SDS011;36701;51.798;19.474;2023-06-10T11:03:41;6.62;;;2.60;;
50733;SDS011;36701;51.798;19.474;2023-06-10T11:06:11;2.78;;;2.40;;
50733;SDS011;36701;51.798;19.474;2023-06-10T11:11:26;4.55;;;2.83;;
50733;SDS011;36701;51.798;19.474;2023-06-10T11:16:39;1.50;;;1.40;;
50733;SDS011;36701;51.798;19.474;2023-06-10T11:19:06;3.78;;;2.60;;
50733;SDS011;36701;51.798;19.474;2023-06-10T11:21:31;7.45;;;3.20;;
50733;SDS011;36701;51.798;19.474;2023-06-10T11:23:58;5.80;;;3.03;;
50733;SDS011;36701;51.798;19.474;2023-06-10T11:31:24;3.80;;;2.90;;
50733;SDS011;36701;51.798;19.474;2023-06-10T11:33:56;4.43;;;3.00;;
50733;SDS011;36701;51.798;19.474;2023-06-10T11:36:22;8.85;;;3.08;;
50733;SDS011;36701;51.798;19.474;2023-06-10T11:38:49;4.97;;;3.30;;
50733;SDS011;36701;51.798;19.474;2023-06-10T11:41:15;7.20;;;2.45;;
50733;SDS011;36701;51.798;19.474;2023-06-10T11:43:46;6.87;;;2.83;;
50733;SDS011;36701;51.798;19.474;2023-06-10T11:46:15;7.50;;;2.87;;
50733;SDS011;36701;51.798;19.474;2023-06-10T11:48:57;3.83;;;2.70;;
50733;SDS011;36701;51.798;19.474;2023-06-10T11:51:26;3.33;;;2.85;;
50733;SDS011;36701;51.798;19.474;2023-06-10T11:53:53;2.78;;;2.58;;
50733;SDS011;36701;51.798;19.474;2023-06-10T11:56:20;8.25;;;3.00;;
50733;SDS011;36701;51.798;19.474;2023-06-10T11:58:52;4.65;;;2.83;;
50733;SDS011;36701;51.798;19.474;2023-06-10T12:01:19;2.55;;;2.42;;
50733;SDS011;36701;51.798;19.474;2023-06-10T12:03:47;8.50;;;2.90;;
50733;SDS011;36701;51.798;19.474;2023-06-10T12:06:13;3.40;;;2.65;;
50733;SDS011;36701;51.798;19.474;2023-06-10T12:08:42;5.40;;;2.47;;
50733;SDS011;36701;51.798;19.474;2023-06-10T12:11:09;7.47;;;2.78;;
50733;SDS011;36701;51.798;19.474;2023-06-10T12:13:35;6.75;;;2.70;;
50733;SDS011;36701;51.798;19.474;2023-06-10T12:16:07;3.62;;;2.65;;
50733;SDS011;36701;51.798;19.474;2023-06-10T12:18:34;7.82;;;2.47;;
50733;SDS011;36701;51.798;19.474;2023-06-10T12:21:00;4.00;;;2.72;;
50733;SDS011;36701;51.798;19.474;2023-06-10T12:23:27;7.22;;;2.28;;
50733;SDS011;36701;51.798;19.474;2023-06-10T12:25:54;4.10;;;2.62;;
50733;SDS011;36701;51.798;19.474;2023-06-10T12:28:21;9.20;;;3.05;;
50733;SDS011;36701;51.798;19.474;2023-06-10T12:30:47;6.37;;;3.15;;
50733;SDS011;36701;51.798;19.474;2023-06-10T12:33:17;2.20;;;2.10;;
50733;SDS011;36701;51.798;19.474;2023-06-10T12:35:50;3.37;;;3.08;;
50733;SDS011;36701;51.798;19.474;2023-06-10T12:38:23;9.10;;;3.05;;
50733;SDS011;36701;51.798;19.474;2023-06-10T12:41:01;2.90;;;2.45;;
50733;SDS011;36701;51.798;19.474;2023-06-10T12:43:30;13.87;;;3.33;;
50733;SDS011;36701;51.798;19.474;2023-06-10T12:46:07;3.70;;;2.40;;
50733;SDS011;36701;51.798;19.474;2023-06-10T12:48:43;5.03;;;3.00;;
50733;SDS011;36701;51.798;19.474;2023-06-10T12:51:17;7.35;;;2.35;;
50733;SDS011;36701;51.798;19.474;2023-06-10T12:53:45;7.90;;;2.67;;
50733;SDS011;36701;51.798;19.474;2023-06-10T12:56:12;7.40;;;3.55;;
50733;SDS011;36701;51.798;19.474;2023-06-10T12:58:38;4.43;;;2.80;;
50733;SDS011;36701;51.798;19.474;2023-06-10T13:01:06;6.03;;;2.87;;
50733;SDS011;36701;51.798;19.474;2023-06-10T13:03:34;6.37;;;2.97;;
50733;SDS011;36701;51.798;19.474;2023-06-10T13:06:02;6.95;;;3.20;;
50733;SDS011;36701;51.798;19.474;2023-06-10T13:08:29;5.20;;;2.37;;
50733;SDS011;36701;51.798;19.474;2023-06-10T13:10:57;8.88;;;2.95;;
50733;SDS011;36701;51.798;19.474;2023-06-10T13:13:23;2.67;;;2.47;;
50733;SDS011;36701;51.798;19.474;2023-06-10T13:15:50;6.60;;;2.80;;
50733;SDS011;36701;51.798;19.474;2023-06-10T13:18:16;5.75;;;2.72;;
50733;SDS011;36701;51.798;19.474;2023-06-10T13:20:46;5.35;;;3.35;;
50733;SDS011;36701;51.798;19.474;2023-06-10T13:23:13;3.42;;;3.12;;
50733;SDS011;36701;51.798;19.474;2023-06-10T13:25:39;7.65;;;2.78;;
50733;SDS011;36701;51.798;19.474;2023-06-10T13:28:06;5.75;;;3.80;;
50733;SDS011;36701;51.798;19.474;2023-06-10T13:30:33;5.50;;;2.42;;
50733;SDS011;36701;51.798;19.474;2023-06-10T13:32:59;5.15;;;2.58;;
50733;SDS011;36701;51.798;19.474;2023-06-10T13:35:26;12.65;;;2.60;;
50733;SDS011;36701;51.798;19.474;2023-06-10T13:37:54;2.92;;;2.70;;
50733;SDS011;36701;51.798;19.474;2023-06-10T13:40:20;5.60;;;2.33;;
50733;SDS011;36701;51.798;19.474;2023-06-10T13:42:48;6.28;;;2.72;;
50733;SDS011;36701;51.798;19.474;2023-06-10T13:45:21;4.40;;;2.80;;
50733;SDS011;36701;51.798;19.474;2023-06-10T13:47:51;2.87;;;2.67;;
50733;SDS011;36701;51.798;19.474;2023-06-10T13:50:17;7.37;;;2.90;;
50733;SDS011;36701;51.798;19.474;2023-06-10T13:52:45;5.53;;;3.50;;
50733;SDS011;36701;51.798;19.474;2023-06-10T13:55:14;2.80;;;2.60;;
50733;SDS011;36701;51.798;19.474;2023-06-10T13:57:43;4.65;;;3.00;;
50733;SDS011;36701;51.798;19.474;2023-06-10T14:00:11;7.28;;;3.00;;
50733;SDS011;36701;51.798;19.474;2023-06-10T14:02:46;5.82;;;2.92;;
50733;SDS011;36701;51.798;19.474;2023-06-10T14:05:13;6.78;;;2.78;;
50733;SDS011;36701;51.798;19.474;2023-06-10T14:07:43;4.10;;;2.50;;
50733;SDS011;36701;51.798;19.474;2023-06-10T14:10:09;7.25;;;4.03;;
50733;SDS011;36701;51.798;19.474;2023-06-10T14:12:36;2.80;;;2.60;;
50733;SDS011;36701;51.798;19.474;2023-06-10T14:15:03;5.45;;;2.50;;
50733;SDS011;36701;51.798;19.474;2023-06-10T14:17:30;5.18;;;3.22;;
50733;SDS011;36701;51.798;19.474;2023-06-10T14:19:56;4.37;;;3.20;;
50733;SDS011;36701;51.798;19.474;2023-06-10T14:22:23;4.28;;;2.83;;
50733;SDS011;36701;51.798;19.474;2023-06-10T14:24:54;5.53;;;2.22;;
50733;SDS011;36701;51.798;19.474;2023-06-10T14:27:23;7.62;;;3.00;;
50733;SDS011;36701;51.798;19.474;2023-06-10T14:29:50;6.05;;;2.47;;
50733;SDS011;36701;51.798;19.474;2023-06-10T14:32:18;4.90;;;2.60;;
50733;SDS011;36701;51.798;19.474;2023-06-10T14:34:44;5.37;;;2.75;;
50733;SDS011;36701;51.798;19.474;2023-06-10T14:37:17;2.83;;;2.58;;
50733;SDS011;36701;51.798;19.474;2023-06-10T14:39:43;3.35;;;2.97;;
50733;SDS011;36701;51.798;19.474;2023-06-10T14:42:13;4.43;;;2.90;;
50733;SDS011;36701;51.798;19.474;2023-06-10T14:44:39;7.47;;;2.70;;
50733;SDS011;36701;51.798;19.474;2023-06-10T14:47:09;2.72;;;2.53;;
50733;SDS011;36701;51.798;19.474;2023-06-10T14:49:36;3.92;;;2.97;;
50733;SDS011;36701;51.798;19.474;2023-06-10T14:52:02;2.62;;;2.42;;
50733;SDS011;36701;51.798;19.474;2023-06-10T14:54:28;4.12;;;2.60;;
50733;SDS011;36701;51.798;19.474;2023-06-10T14:56:55;4.53;;;2.92;;
50733;SDS011;36701;51.798;19.474;2023-06-10T14:59:21;4.72;;;2.35;;
50733;SDS011;36701;51.798;19.474;2023-06-10T15:01:53;3.67;;;2.50;;
50733;SDS011;36701;51.798;19.474;2023-06-10T15:04:19;4.53;;;2.80;;
50733;SDS011;36701;51.798;19.474;2023-06-10T15:06:49;4.43;;;3.22;;
50733;SDS011;36701;51.798;19.474;2023-06-10T15:09:16;4.80;;;3.25;;
50733;SDS011;36701;51.798;19.474;2023-06-10T15:11:44;2.85;;;2.42;;
50733;SDS011;36701;51.798;19.474;2023-06-10T15:14:10;3.22;;;2.50;;
50733;SDS011;36701;51.798;19.474;2023-06-10T15:16:36;2.80;;;2.60;;
50733;SDS011;36701;51.798;19.474;2023-06-10T15:19:02;10.00;;;2.40;;
50733;SDS011;36701;51.798;19.474;2023-06-10T15:21:29;3.15;;;2.83;;
50733;SDS011;36701;51.798;19.474;2023-06-10T15:23:55;3.87;;;2.70;;
50733;SDS011;36701;51.798;19.474;2023-06-10T15:26:21;11.15;;;2.78;;
50733;SDS011;36701;51.798;19.474;2023-06-10T15:28:47;9.60;;;2.78;;
50733;SDS011;36701;51.798;19.474;2023-06-10T15:31:14;3.17;;;2.28;;
50733;SDS011;36701;51.798;19.474;2023-06-10T15:33:40;4.35;;;2.67;;
50733;SDS011;36701;51.798;19.474;2023-06-10T15:36:06;2.45;;;2.30;;
50733;SDS011;36701;51.798;19.474;2023-06-10T15:38:32;3.42;;;2.90;;
50733;SDS011;36701;51.798;19.474;2023-06-10T15:40:59;5.60;;;2.40;;
50733;SDS011;36701;51.798;19.474;2023-06-10T15:43:25;3.95;;;2.28;;
50733;SDS011;36701;51.798;19.474;2023-06-10T15:45:51;4.53;;;2.67;;
50733;SDS011;36701;51.798;19.474;2023-06-10T15:48:17;3.80;;;3.10;;
50733;SDS011;36701;51.798;19.474;2023-06-10T15:50:43;2.90;;;2.70;;
50733;SDS011;36701;51.798;19.474;2023-06-10T15:53:10;4.97;;;3.00;;
50733;SDS011;36701;51.798;19.474;2023-06-10T15:55:37;3.22;;;2.97;;
50733;SDS011;36701;51.798;19.474;2023-06-10T15:58:03;3.62;;;2.83;;
50733;SDS011;36701;51.798;19.474;2023-06-10T16:00:29;4.95;;;3.40;;
50733;SDS011;36701;51.798;19.474;2023-06-10T16:02:56;3.08;;;2.78;;
50733;SDS011;36701;51.798;19.474;2023-06-10T16:05:22;3.45;;;2.62;;
50733;SDS011;36701;51.798;19.474;2023-06-10T16:07:48;4.22;;;3.37;;
50733;SDS011;36701;51.798;19.474;2023-06-10T16:10:14;11.25;;;3.67;;
50733;SDS011;36701;51.798;19.474;2023-06-10T16:12:40;8.52;;;3.03;;
50733;SDS011;36701;51.798;19.474;2023-06-10T16:15:07;4.80;;;3.10;;
50733;SDS011;36701;51.798;19.474;2023-06-10T16:17:33;11.82;;;3.22;;
50733;SDS011;36701;51.798;19.474;2023-06-10T16:19:59;2.78;;;2.47;;
50733;SDS011;36701;51.798;19.474;2023-06-10T16:22:25;3.42;;;2.60;;
50733;SDS011;36701;51.798;19.474;2023-06-10T16:24:52;3.58;;;2.55;;
50733;SDS011;36701;51.798;19.474;2023-06-10T16:27:18;7.15;;;3.28;;
50733;SDS011;36701;51.798;19.474;2023-06-10T16:29:45;7.00;;;3.25;;
50733;SDS011;36701;51.798;19.474;2023-06-10T16:32:11;9.20;;;3.35;;
50733;SDS011;36701;51.798;19.474;2023-06-10T16:34:37;3.50;;;3.20;;
50733;SDS011;36701;51.798;19.474;2023-06-10T16:37:03;7.55;;;2.90;;
50733;SDS011;36701;51.798;19.474;2023-06-10T16:39:30;6.57;;;3.08;;
50733;SDS011;36701;51.798;19.474;2023-06-10T16:41:56;5.95;;;3.30;;
50733;SDS011;36701;51.798;19.474;2023-06-10T16:44:22;7.30;;;2.95;;
50733;SDS011;36701;51.798;19.474;2023-06-10T16:46:48;10.55;;;2.92;;
50733;SDS011;36701;51.798;19.474;2023-06-10T16:49:14;5.95;;;3.30;;